Ana Sayfa
METAR-TAF:

METAR-TAF

Havaalanları :

Newport State Airport

Newport, Rhode Island, Amerika Birleşik Devletleri

Enlem: 41-31-48N, Boylam: 071-17-01W, yükseklik: 52 m

Güncel hava durumu gözlemi

Rapor saat 18:53 UTC de 50 dakika önce yapıldı.
Rüzgar güney/güneydoğudan 10 kt ve 19 kt'a kadar ani rüzgarlar
Sıcaklık 19°C
Nem 94%
Basınç 1002 hPa
Görüş mesafesi: 0.4 km
sis

METAR: KUUU 201853Z AUTO 15010G19KT 1/4SM FG VV002 19/18 A2959 RMK AO2 SLP019 T01890183

Saat: 15:43 (19:43 UTC)


TAF: eksik

4.000'den fazla havaalanı için hava durumu gözlemleri ve tahminleri (METAR ve TAF raporları).

Kullanılabilir istasyonlar harita üzerinde sarı ve kırmızı noktalarla gösterilir.

İstasyonun adını görmek için fareyi noktanın üzerinde gezdirin.

Sonrasında hava gözlem ve tahminlerini görmek için tıklayın.

Haritayı değiştirmek için: yaklaştırmak için siyah artı işaretli yeşil düğmeye ve uzaklaştırmak için de eksi işaretli düğmeye hızla tıklayın; bitişik haritalar için yeşil okları kullanın.


METAR-TAF: